sensor_id;sensor_type;location;lat;lon;timestamp;P1;durP1;ratioP1;P2;durP2;ratioP2
32295;SDS011;18781;51.550;5.418;2024-02-21T00:01:44;30.27;;;10.10;;
32295;SDS011;18781;51.550;5.418;2024-02-21T00:04:09;37.30;;;9.77;;
32295;SDS011;18781;51.550;5.418;2024-02-21T00:06:35;35.85;;;10.30;;
32295;SDS011;18781;51.550;5.418;2024-02-21T00:09:01;33.85;;;10.85;;
32295;SDS011;18781;51.550;5.418;2024-02-21T00:11:26;34.00;;;10.30;;
32295;SDS011;18781;51.550;5.418;2024-02-21T00:13:53;32.28;;;10.68;;
32295;SDS011;18781;51.550;5.418;2024-02-21T00:16:18;30.95;;;10.70;;
32295;SDS011;18781;51.550;5.418;2024-02-21T00:18:45;34.10;;;10.77;;
32295;SDS011;18781;51.550;5.418;2024-02-21T00:21:11;32.95;;;10.68;;
32295;SDS011;18781;51.550;5.418;2024-02-21T00:23:43;36.92;;;10.05;;
32295;SDS011;18781;51.550;5.418;2024-02-21T00:26:12;25.27;;;9.70;;
32295;SDS011;18781;51.550;5.418;2024-02-21T00:31:06;30.45;;;10.02;;
32295;SDS011;18781;51.550;5.418;2024-02-21T00:33:32;33.92;;;10.73;;
32295;SDS011;18781;51.550;5.418;2024-02-21T00:35:57;32.03;;;10.70;;
32295;SDS011;18781;51.550;5.418;2024-02-21T00:38:23;36.42;;;9.95;;
32295;SDS011;18781;51.550;5.418;2024-02-21T00:40:49;26.20;;;9.57;;
32295;SDS011;18781;51.550;5.418;2024-02-21T00:43:14;38.58;;;10.15;;
32295;SDS011;18781;51.550;5.418;2024-02-21T00:45:40;32.08;;;9.57;;
32295;SDS011;18781;51.550;5.418;2024-02-21T00:48:06;29.75;;;10.35;;
32295;SDS011;18781;51.550;5.418;2024-02-21T00:50:32;30.75;;;9.38;;
32295;SDS011;18781;51.550;5.418;2024-02-21T00:52:57;30.98;;;9.63;;
32295;SDS011;18781;51.550;5.418;2024-02-21T00:55:23;35.25;;;9.77;;
32295;SDS011;18781;51.550;5.418;2024-02-21T00:57:48;27.55;;;8.85;;
32295;SDS011;18781;51.550;5.418;2024-02-21T01:00:14;34.83;;;9.18;;
32295;SDS011;18781;51.550;5.418;2024-02-21T01:02:40;30.85;;;9.82;;
32295;SDS011;18781;51.550;5.418;2024-02-21T01:05:06;30.38;;;9.38;;
32295;SDS011;18781;51.550;5.418;2024-02-21T01:07:32;27.27;;;9.50;;
32295;SDS011;18781;51.550;5.418;2024-02-21T01:09:57;35.53;;;9.65;;
32295;SDS011;18781;51.550;5.418;2024-02-21T01:12:23;27.35;;;9.60;;
32295;SDS011;18781;51.550;5.418;2024-02-21T01:14:49;30.33;;;8.48;;
32295;SDS011;18781;51.550;5.418;2024-02-21T01:17:14;27.77;;;8.80;;
32295;SDS011;18781;51.550;5.418;2024-02-21T01:19:40;29.42;;;8.98;;
32295;SDS011;18781;51.550;5.418;2024-02-21T01:22:06;29.90;;;8.77;;
32295;SDS011;18781;51.550;5.418;2024-02-21T01:24:32;25.83;;;8.38;;
32295;SDS011;18781;51.550;5.418;2024-02-21T01:26:58;31.85;;;8.68;;
32295;SDS011;18781;51.550;5.418;2024-02-21T01:29:24;21.10;;;7.85;;
32295;SDS011;18781;51.550;5.418;2024-02-21T01:31:49;31.45;;;8.88;;
32295;SDS011;18781;51.550;5.418;2024-02-21T01:34:15;33.78;;;9.32;;
32295;SDS011;18781;51.550;5.418;2024-02-21T01:36:41;26.42;;;8.38;;
32295;SDS011;18781;51.550;5.418;2024-02-21T01:39:07;22.45;;;7.93;;
32295;SDS011;18781;51.550;5.418;2024-02-21T01:41:32;27.38;;;8.38;;
32295;SDS011;18781;51.550;5.418;2024-02-21T01:43:58;30.27;;;8.40;;
32295;SDS011;18781;51.550;5.418;2024-02-21T01:46:24;27.63;;;8.50;;
32295;SDS011;18781;51.550;5.418;2024-02-21T01:48:56;19.33;;;7.97;;
32295;SDS011;18781;51.550;5.418;2024-02-21T01:51:23;24.88;;;7.95;;
32295;SDS011;18781;51.550;5.418;2024-02-21T01:53:50;31.23;;;8.52;;
32295;SDS011;18781;51.550;5.418;2024-02-21T01:56:16;30.55;;;8.80;;
32295;SDS011;18781;51.550;5.418;2024-02-21T01:58:42;21.40;;;8.15;;
32295;SDS011;18781;51.550;5.418;2024-02-21T02:01:09;25.63;;;7.65;;
32295;SDS011;18781;51.550;5.418;2024-02-21T02:03:35;23.35;;;8.32;;
32295;SDS011;18781;51.550;5.418;2024-02-21T02:06:01;27.15;;;7.90;;
32295;SDS011;18781;51.550;5.418;2024-02-21T02:08:29;30.35;;;7.32;;
32295;SDS011;18781;51.550;5.418;2024-02-21T02:10:56;27.30;;;8.23;;
32295;SDS011;18781;51.550;5.418;2024-02-21T02:13:22;24.27;;;8.20;;
32295;SDS011;18781;51.550;5.418;2024-02-21T02:15:48;28.42;;;7.90;;
32295;SDS011;18781;51.550;5.418;2024-02-21T02:18:15;19.15;;;7.75;;
32295;SDS011;18781;51.550;5.418;2024-02-21T02:20:42;18.70;;;6.85;;
32295;SDS011;18781;51.550;5.418;2024-02-21T02:25:59;18.17;;;7.10;;
32295;SDS011;18781;51.550;5.418;2024-02-21T02:28:26;26.27;;;7.63;;
32295;SDS011;18781;51.550;5.418;2024-02-21T02:30:52;29.95;;;7.38;;
32295;SDS011;18781;51.550;5.418;2024-02-21T02:33:17;24.65;;;6.95;;
32295;SDS011;18781;51.550;5.418;2024-02-21T02:35:43;23.63;;;7.05;;
32295;SDS011;18781;51.550;5.418;2024-02-21T02:38:09;18.73;;;6.80;;
32295;SDS011;18781;51.550;5.418;2024-02-21T02:40:37;18.88;;;6.47;;
32295;SDS011;18781;51.550;5.418;2024-02-21T02:43:03;21.02;;;7.47;;
32295;SDS011;18781;51.550;5.418;2024-02-21T02:45:29;24.88;;;7.22;;
32295;SDS011;18781;51.550;5.418;2024-02-21T02:47:58;27.48;;;7.38;;
32295;SDS011;18781;51.550;5.418;2024-02-21T02:50:24;28.67;;;7.65;;
32295;SDS011;18781;51.550;5.418;2024-02-21T02:52:51;21.20;;;7.47;;
32295;SDS011;18781;51.550;5.418;2024-02-21T02:55:17;25.40;;;7.05;;
32295;SDS011;18781;51.550;5.418;2024-02-21T02:57:43;25.35;;;6.25;;
32295;SDS011;18781;51.550;5.418;2024-02-21T03:00:12;22.08;;;7.57;;
32295;SDS011;18781;51.550;5.418;2024-02-21T03:02:40;20.02;;;7.20;;
32295;SDS011;18781;51.550;5.418;2024-02-21T03:05:13;16.25;;;7.70;;
32295;SDS011;18781;51.550;5.418;2024-02-21T03:07:43;17.83;;;6.95;;
32295;SDS011;18781;51.550;5.418;2024-02-21T03:10:09;18.60;;;7.20;;
32295;SDS011;18781;51.550;5.418;2024-02-21T03:12:36;27.00;;;7.05;;
32295;SDS011;18781;51.550;5.418;2024-02-21T03:15:02;21.30;;;6.93;;
32295;SDS011;18781;51.550;5.418;2024-02-21T03:17:28;22.15;;;7.10;;
32295;SDS011;18781;51.550;5.418;2024-02-21T03:19:54;14.40;;;6.38;;
32295;SDS011;18781;51.550;5.418;2024-02-21T03:22:23;19.38;;;6.95;;
32295;SDS011;18781;51.550;5.418;2024-02-21T03:24:49;18.75;;;6.80;;
32295;SDS011;18781;51.550;5.418;2024-02-21T03:27:14;19.83;;;6.45;;
32295;SDS011;18781;51.550;5.418;2024-02-21T03:29:40;22.80;;;7.15;;
32295;SDS011;18781;51.550;5.418;2024-02-21T03:32:06;17.85;;;6.93;;
32295;SDS011;18781;51.550;5.418;2024-02-21T03:34:31;18.20;;;6.93;;
32295;SDS011;18781;51.550;5.418;2024-02-21T03:36:57;22.10;;;7.25;;
32295;SDS011;18781;51.550;5.418;2024-02-21T03:39:24;28.17;;;7.90;;
32295;SDS011;18781;51.550;5.418;2024-02-21T03:41:49;20.13;;;6.50;;
32295;SDS011;18781;51.550;5.418;2024-02-21T03:44:16;22.38;;;7.38;;
32295;SDS011;18781;51.550;5.418;2024-02-21T03:46:41;17.08;;;6.90;;
32295;SDS011;18781;51.550;5.418;2024-02-21T03:49:07;19.40;;;6.65;;
32295;SDS011;18781;51.550;5.418;2024-02-21T03:51:33;21.45;;;6.63;;
32295;SDS011;18781;51.550;5.418;2024-02-21T03:53:58;23.30;;;7.32;;
32295;SDS011;18781;51.550;5.418;2024-02-21T03:56:24;17.52;;;7.25;;
32295;SDS011;18781;51.550;5.418;2024-02-21T03:58:50;17.50;;;7.22;;
32295;SDS011;18781;51.550;5.418;2024-02-21T04:01:15;23.45;;;8.32;;
32295;SDS011;18781;51.550;5.418;2024-02-21T04:03:43;29.70;;;7.70;;
32295;SDS011;18781;51.550;5.418;2024-02-21T04:06:09;20.40;;;7.93;;
32295;SDS011;18781;51.550;5.418;2024-02-21T04:08:35;17.13;;;7.25;;
32295;SDS011;18781;51.550;5.418;2024-02-21T04:11:00;25.02;;;8.35;;
32295;SDS011;18781;51.550;5.418;2024-02-21T04:13:26;27.42;;;8.20;;
32295;SDS011;18781;51.550;5.418;2024-02-21T04:15:52;27.30;;;8.52;;
32295;SDS011;18781;51.550;5.418;2024-02-21T04:18:17;17.48;;;7.95;;
32295;SDS011;18781;51.550;5.418;2024-02-21T04:20:43;19.98;;;8.00;;
32295;SDS011;18781;51.550;5.418;2024-02-21T04:23:09;21.17;;;7.93;;
32295;SDS011;18781;51.550;5.418;2024-02-21T04:25:34;21.75;;;7.75;;
32295;SDS011;18781;51.550;5.418;2024-02-21T04:28:00;24.42;;;8.18;;
32295;SDS011;18781;51.550;5.418;2024-02-21T04:30:26;29.33;;;8.77;;
32295;SDS011;18781;51.550;5.418;2024-02-21T04:32:52;23.23;;;8.32;;
32295;SDS011;18781;51.550;5.418;2024-02-21T04:35:17;22.42;;;8.13;;
32295;SDS011;18781;51.550;5.418;2024-02-21T04:37:43;17.80;;;7.75;;
32295;SDS011;18781;51.550;5.418;2024-02-21T04:40:09;21.10;;;7.82;;
32295;SDS011;18781;51.550;5.418;2024-02-21T04:42:36;19.80;;;7.90;;
32295;SDS011;18781;51.550;5.418;2024-02-21T04:45:01;20.52;;;7.53;;
32295;SDS011;18781;51.550;5.418;2024-02-21T04:47:27;20.63;;;7.72;;
32295;SDS011;18781;51.550;5.418;2024-02-21T04:49:53;23.65;;;7.18;;
32295;SDS011;18781;51.550;5.418;2024-02-21T04:52:19;23.17;;;7.47;;
32295;SDS011;18781;51.550;5.418;2024-02-21T04:54:44;23.33;;;8.25;;
32295;SDS011;18781;51.550;5.418;2024-02-21T04:57:10;26.13;;;9.38;;
32295;SDS011;18781;51.550;5.418;2024-02-21T04:59:35;24.55;;;8.85;;
32295;SDS011;18781;51.550;5.418;2024-02-21T05:02:02;25.23;;;8.48;;
32295;SDS011;18781;51.550;5.418;2024-02-21T05:04:28;30.65;;;9.57;;
32295;SDS011;18781;51.550;5.418;2024-02-21T05:06:53;24.60;;;9.38;;
32295;SDS011;18781;51.550;5.418;2024-02-21T05:09:19;23.75;;;9.32;;
32295;SDS011;18781;51.550;5.418;2024-02-21T05:11:45;23.77;;;9.65;;
32295;SDS011;18781;51.550;5.418;2024-02-21T05:14:11;23.85;;;9.63;;
32295;SDS011;18781;51.550;5.418;2024-02-21T05:16:38;23.00;;;9.40;;
32295;SDS011;18781;51.550;5.418;2024-02-21T05:19:03;29.92;;;10.07;;
32295;SDS011;18781;51.550;5.418;2024-02-21T05:21:29;24.02;;;9.80;;
32295;SDS011;18781;51.550;5.418;2024-02-21T05:23:55;21.73;;;9.63;;
32295;SDS011;18781;51.550;5.418;2024-02-21T05:26:24;24.50;;;9.60;;
32295;SDS011;18781;51.550;5.418;2024-02-21T05:28:50;27.15;;;10.30;;
32295;SDS011;18781;51.550;5.418;2024-02-21T05:31:20;29.85;;;10.88;;
32295;SDS011;18781;51.550;5.418;2024-02-21T05:33:46;24.42;;;10.82;;
32295;SDS011;18781;51.550;5.418;2024-02-21T05:36:12;24.40;;;10.23;;
32295;SDS011;18781;51.550;5.418;2024-02-21T05:38:38;25.55;;;10.05;;
32295;SDS011;18781;51.550;5.418;2024-02-21T05:41:04;28.50;;;10.20;;
32295;SDS011;18781;51.550;5.418;2024-02-21T05:43:30;25.83;;;9.80;;
32295;SDS011;18781;51.550;5.418;2024-02-21T05:45:56;22.20;;;9.80;;
32295;SDS011;18781;51.550;5.418;2024-02-21T05:48:22;28.35;;;10.18;;
32295;SDS011;18781;51.550;5.418;2024-02-21T05:50:48;24.00;;;10.13;;
32295;SDS011;18781;51.550;5.418;2024-02-21T05:53:14;25.73;;;9.23;;
32295;SDS011;18781;51.550;5.418;2024-02-21T05:55:40;25.63;;;9.85;;
32295;SDS011;18781;51.550;5.418;2024-02-21T05:58:06;21.80;;;9.32;;
32295;SDS011;18781;51.550;5.418;2024-02-21T06:00:32;24.13;;;9.45;;
32295;SDS011;18781;51.550;5.418;2024-02-21T06:02:58;22.00;;;9.48;;
32295;SDS011;18781;51.550;5.418;2024-02-21T06:05:24;28.98;;;9.57;;
32295;SDS011;18781;51.550;5.418;2024-02-21T06:07:50;30.17;;;10.02;;
32295;SDS011;18781;51.550;5.418;2024-02-21T06:10:15;24.48;;;9.10;;
32295;SDS011;18781;51.550;5.418;2024-02-21T06:12:41;25.35;;;8.93;;
32295;SDS011;18781;51.550;5.418;2024-02-21T06:15:07;22.77;;;9.80;;
32295;SDS011;18781;51.550;5.418;2024-02-21T06:17:33;21.05;;;8.27;;
32295;SDS011;18781;51.550;5.418;2024-02-21T06:19:58;20.15;;;8.68;;
32295;SDS011;18781;51.550;5.418;2024-02-21T06:22:24;28.33;;;9.40;;
32295;SDS011;18781;51.550;5.418;2024-02-21T06:24:49;19.40;;;8.63;;
32295;SDS011;18781;51.550;5.418;2024-02-21T06:27:15;31.33;;;9.88;;
32295;SDS011;18781;51.550;5.418;2024-02-21T06:29:41;25.88;;;9.40;;
32295;SDS011;18781;51.550;5.418;2024-02-21T06:32:07;27.20;;;9.27;;
32295;SDS011;18781;51.550;5.418;2024-02-21T06:34:32;19.27;;;8.35;;
32295;SDS011;18781;51.550;5.418;2024-02-21T06:36:58;24.83;;;9.13;;
32295;SDS011;18781;51.550;5.418;2024-02-21T06:39:24;22.27;;;8.88;;
32295;SDS011;18781;51.550;5.418;2024-02-21T06:41:50;21.90;;;8.80;;
32295;SDS011;18781;51.550;5.418;2024-02-21T06:44:16;22.70;;;9.43;;
32295;SDS011;18781;51.550;5.418;2024-02-21T06:46:42;22.98;;;9.65;;
32295;SDS011;18781;51.550;5.418;2024-02-21T06:49:08;24.08;;;8.73;;
32295;SDS011;18781;51.550;5.418;2024-02-21T06:51:33;27.80;;;9.18;;
32295;SDS011;18781;51.550;5.418;2024-02-21T06:53:59;24.67;;;9.48;;
32295;SDS011;18781;51.550;5.418;2024-02-21T06:56:25;20.35;;;9.50;;
32295;SDS011;18781;51.550;5.418;2024-02-21T06:58:54;20.83;;;9.52;;
32295;SDS011;18781;51.550;5.418;2024-02-21T07:01:20;28.45;;;9.43;;
32295;SDS011;18781;51.550;5.418;2024-02-21T07:03:46;24.92;;;9.70;;
32295;SDS011;18781;51.550;5.418;2024-02-21T07:06:12;24.58;;;9.82;;
32295;SDS011;18781;51.550;5.418;2024-02-21T07:08:38;24.83;;;9.85;;
32295;SDS011;18781;51.550;5.418;2024-02-21T07:11:04;26.90;;;10.20;;
32295;SDS011;18781;51.550;5.418;2024-02-21T07:13:30;23.35;;;10.88;;
32295;SDS011;18781;51.550;5.418;2024-02-21T07:15:56;29.58;;;10.18;;
32295;SDS011;18781;51.550;5.418;2024-02-21T07:18:21;29.08;;;10.20;;
32295;SDS011;18781;51.550;5.418;2024-02-21T07:20:47;26.08;;;10.07;;
32295;SDS011;18781;51.550;5.418;2024-02-21T07:23:12;25.90;;;10.73;;
32295;SDS011;18781;51.550;5.418;2024-02-21T07:25:38;26.38;;;10.63;;
32295;SDS011;18781;51.550;5.418;2024-02-21T07:28:05;28.30;;;10.60;;
32295;SDS011;18781;51.550;5.418;2024-02-21T07:30:30;28.27;;;10.18;;
32295;SDS011;18781;51.550;5.418;2024-02-21T07:32:56;26.00;;;10.02;;
32295;SDS011;18781;51.550;5.418;2024-02-21T07:35:22;20.92;;;9.93;;
32295;SDS011;18781;51.550;5.418;2024-02-21T07:37:48;23.77;;;10.63;;
32295;SDS011;18781;51.550;5.418;2024-02-21T07:40:13;21.73;;;10.40;;
32295;SDS011;18781;51.550;5.418;2024-02-21T07:42:40;25.67;;;10.25;;
32295;SDS011;18781;51.550;5.418;2024-02-21T07:45:06;23.48;;;10.30;;
32295;SDS011;18781;51.550;5.418;2024-02-21T07:47:33;21.20;;;9.63;;
32295;SDS011;18781;51.550;5.418;2024-02-21T07:49:58;22.98;;;10.43;;
32295;SDS011;18781;51.550;5.418;2024-02-21T07:52:24;20.02;;;9.30;;
32295;SDS011;18781;51.550;5.418;2024-02-21T07:54:50;22.90;;;10.30;;
32295;SDS011;18781;51.550;5.418;2024-02-21T07:57:15;26.98;;;10.05;;
32295;SDS011;18781;51.550;5.418;2024-02-21T07:59:41;21.38;;;9.85;;
32295;SDS011;18781;51.550;5.418;2024-02-21T08:02:07;23.25;;;10.75;;
32295;SDS011;18781;51.550;5.418;2024-02-21T08:04:33;22.90;;;10.30;;
32295;SDS011;18781;51.550;5.418;2024-02-21T08:06:59;25.17;;;11.48;;
32295;SDS011;18781;51.550;5.418;2024-02-21T08:09:27;21.77;;;10.38;;
32295;SDS011;18781;51.550;5.418;2024-02-21T08:11:54;24.88;;;10.73;;
32295;SDS011;18781;51.550;5.418;2024-02-21T08:14:20;22.85;;;9.85;;
32295;SDS011;18781;51.550;5.418;2024-02-21T08:16:46;26.77;;;10.40;;
32295;SDS011;18781;51.550;5.418;2024-02-21T08:19:12;22.45;;;9.60;;
32295;SDS011;18781;51.550;5.418;2024-02-21T08:21:37;22.88;;;9.50;;
32295;SDS011;18781;51.550;5.418;2024-02-21T08:24:03;23.60;;;10.10;;
32295;SDS011;18781;51.550;5.418;2024-02-21T08:26:29;22.52;;;9.43;;
32295;SDS011;18781;51.550;5.418;2024-02-21T08:28:56;20.70;;;9.27;;
32295;SDS011;18781;51.550;5.418;2024-02-21T08:31:26;17.65;;;8.00;;
32295;SDS011;18781;51.550;5.418;2024-02-21T08:33:59;21.30;;;8.48;;
32295;SDS011;18781;51.550;5.418;2024-02-21T08:36:30;15.43;;;5.97;;
32295;SDS011;18781;51.550;5.418;2024-02-21T08:38:57;18.30;;;8.43;;
32295;SDS011;18781;51.550;5.418;2024-02-21T08:41:26;21.80;;;8.32;;
32295;SDS011;18781;51.550;5.418;2024-02-21T08:43:52;12.85;;;8.02;;
32295;SDS011;18781;51.550;5.418;2024-02-21T08:46:22;18.80;;;8.25;;
32295;SDS011;18781;51.550;5.418;2024-02-21T08:48:49;15.75;;;7.57;;
32295;SDS011;18781;51.550;5.418;2024-02-21T08:51:16;18.20;;;7.38;;
32295;SDS011;18781;51.550;5.418;2024-02-21T08:53:43;17.55;;;8.07;;
32295;SDS011;18781;51.550;5.418;2024-02-21T08:56:09;15.18;;;7.80;;
32295;SDS011;18781;51.550;5.418;2024-02-21T08:58:36;14.50;;;7.90;;
32295;SDS011;18781;51.550;5.418;2024-02-21T09:01:05;15.35;;;7.47;;
32295;SDS011;18781;51.550;5.418;2024-02-21T09:03:35;17.85;;;7.97;;
32295;SDS011;18781;51.550;5.418;2024-02-21T09:06:02;17.77;;;7.10;;
32295;SDS011;18781;51.550;5.418;2024-02-21T09:08:28;15.95;;;7.18;;
32295;SDS011;18781;51.550;5.418;2024-02-21T09:10:54;15.07;;;7.22;;
32295;SDS011;18781;51.550;5.418;2024-02-21T09:13:20;14.25;;;6.85;;
32295;SDS011;18781;51.550;5.418;2024-02-21T09:15:46;13.23;;;7.10;;
32295;SDS011;18781;51.550;5.418;2024-02-21T09:18:13;14.85;;;7.93;;
32295;SDS011;18781;51.550;5.418;2024-02-21T09:20:38;14.50;;;7.45;;
32295;SDS011;18781;51.550;5.418;2024-02-21T09:23:04;13.02;;;7.07;;
32295;SDS011;18781;51.550;5.418;2024-02-21T09:25:30;12.23;;;7.53;;
32295;SDS011;18781;51.550;5.418;2024-02-21T09:27:56;13.82;;;8.38;;
32295;SDS011;18781;51.550;5.418;2024-02-21T09:30:23;15.40;;;8.35;;
32295;SDS011;18781;51.550;5.418;2024-02-21T09:32:49;16.00;;;8.60;;
32295;SDS011;18781;51.550;5.418;2024-02-21T09:35:15;15.93;;;9.48;;
32295;SDS011;18781;51.550;5.418;2024-02-21T09:37:41;22.10;;;10.50;;
32295;SDS011;18781;51.550;5.418;2024-02-21T09:40:07;14.32;;;9.68;;
32295;SDS011;18781;51.550;5.418;2024-02-21T09:42:40;18.40;;;9.73;;
32295;SDS011;18781;51.550;5.418;2024-02-21T09:45:22;22.63;;;10.68;;
32295;SDS011;18781;51.550;5.418;2024-02-21T09:47:57;19.52;;;9.65;;
32295;SDS011;18781;51.550;5.418;2024-02-21T09:50:49;18.55;;;9.85;;
32295;SDS011;18781;51.550;5.418;2024-02-21T09:53:16;17.30;;;10.43;;
32295;SDS011;18781;51.550;5.418;2024-02-21T09:55:44;18.30;;;10.20;;
32295;SDS011;18781;51.550;5.418;2024-02-21T09:58:11;18.15;;;10.30;;
32295;SDS011;18781;51.550;5.418;2024-02-21T10:00:38;22.23;;;10.50;;
32295;SDS011;18781;51.550;5.418;2024-02-21T10:03:03;14.77;;;9.48;;
32295;SDS011;18781;51.550;5.418;2024-02-21T10:05:35;18.30;;;9.55;;
32295;SDS011;18781;51.550;5.418;2024-02-21T10:08:02;19.20;;;9.43;;
32295;SDS011;18781;51.550;5.418;2024-02-21T10:10:29;21.85;;;10.23;;
32295;SDS011;18781;51.550;5.418;2024-02-21T10:12:55;17.88;;;9.90;;
32295;SDS011;18781;51.550;5.418;2024-02-21T10:15:21;18.50;;;8.85;;
32295;SDS011;18781;51.550;5.418;2024-02-21T10:17:48;18.75;;;10.38;;
32295;SDS011;18781;51.550;5.418;2024-02-21T10:20:14;22.00;;;9.15;;
32295;SDS011;18781;51.550;5.418;2024-02-21T10:22:41;18.88;;;8.70;;
32295;SDS011;18781;51.550;5.418;2024-02-21T10:25:10;20.33;;;7.78;;
32295;SDS011;18781;51.550;5.418;2024-02-21T10:27:36;21.75;;;8.38;;
32295;SDS011;18781;51.550;5.418;2024-02-21T10:30:04;17.10;;;7.43;;
32295;SDS011;18781;51.550;5.418;2024-02-21T10:32:32;14.43;;;7.45;;
32295;SDS011;18781;51.550;5.418;2024-02-21T10:35:01;19.75;;;7.38;;
32295;SDS011;18781;51.550;5.418;2024-02-21T10:37:30;18.30;;;7.15;;
32295;SDS011;18781;51.550;5.418;2024-02-21T10:40:00;16.17;;;7.00;;
32295;SDS011;18781;51.550;5.418;2024-02-21T10:42:28;16.50;;;7.15;;
32295;SDS011;18781;51.550;5.418;2024-02-21T10:49:56;14.88;;;6.15;;
32295;SDS011;18781;51.550;5.418;2024-02-21T10:52:41;17.52;;;6.97;;
32295;SDS011;18781;51.550;5.418;2024-02-21T10:55:19;14.18;;;6.35;;
32295;SDS011;18781;51.550;5.418;2024-02-21T10:57:49;12.70;;;6.13;;
32295;SDS011;18781;51.550;5.418;2024-02-21T11:00:16;17.52;;;6.47;;
32295;SDS011;18781;51.550;5.418;2024-02-21T11:02:42;16.40;;;6.47;;
32295;SDS011;18781;51.550;5.418;2024-02-21T11:05:09;13.38;;;5.95;;
32295;SDS011;18781;51.550;5.418;2024-02-21T11:07:36;13.43;;;6.10;;
32295;SDS011;18781;51.550;5.418;2024-02-21T11:10:02;16.65;;;6.30;;
32295;SDS011;18781;51.550;5.418;2024-02-21T11:12:32;20.05;;;6.00;;
32295;SDS011;18781;51.550;5.418;2024-02-21T11:15:07;16.90;;;5.65;;
32295;SDS011;18781;51.550;5.418;2024-02-21T11:17:33;12.35;;;5.45;;
32295;SDS011;18781;51.550;5.418;2024-02-21T11:19:58;14.77;;;6.38;;
32295;SDS011;18781;51.550;5.418;2024-02-21T11:22:40;15.43;;;5.88;;
32295;SDS011;18781;51.550;5.418;2024-02-21T11:25:09;14.98;;;5.70;;
32295;SDS011;18781;51.550;5.418;2024-02-21T11:27:37;10.00;;;5.43;;
32295;SDS011;18781;51.550;5.418;2024-02-21T11:30:04;12.68;;;5.47;;
32295;SDS011;18781;51.550;5.418;2024-02-21T11:32:30;15.13;;;5.82;;
32295;SDS011;18781;51.550;5.418;2024-02-21T11:34:57;14.80;;;5.80;;
32295;SDS011;18781;51.550;5.418;2024-02-21T11:37:29;19.33;;;6.10;;
32295;SDS011;18781;51.550;5.418;2024-02-21T11:39:57;10.77;;;4.97;;
32295;SDS011;18781;51.550;5.418;2024-02-21T11:42:26;15.90;;;5.40;;
32295;SDS011;18781;51.550;5.418;2024-02-21T11:44:53;16.23;;;5.57;;
32295;SDS011;18781;51.550;5.418;2024-02-21T11:47:22;13.60;;;5.22;;
32295;SDS011;18781;51.550;5.418;2024-02-21T11:49:48;13.70;;;5.30;;
32295;SDS011;18781;51.550;5.418;2024-02-21T11:52:18;17.45;;;5.78;;
32295;SDS011;18781;51.550;5.418;2024-02-21T11:54:47;18.63;;;5.50;;
32295;SDS011;18781;51.550;5.418;2024-02-21T11:57:13;15.73;;;5.90;;
32295;SDS011;18781;51.550;5.418;2024-02-21T11:59:42;17.38;;;5.72;;
32295;SDS011;18781;51.550;5.418;2024-02-21T12:02:10;13.40;;;5.43;;
32295;SDS011;18781;51.550;5.418;2024-02-21T12:04:36;14.25;;;5.13;;
32295;SDS011;18781;51.550;5.418;2024-02-21T12:07:02;18.40;;;5.18;;
32295;SDS011;18781;51.550;5.418;2024-02-21T12:09:31;16.08;;;5.47;;
32295;SDS011;18781;51.550;5.418;2024-02-21T12:12:00;25.02;;;6.25;;
32295;SDS011;18781;51.550;5.418;2024-02-21T12:14:31;15.02;;;5.15;;
32295;SDS011;18781;51.550;5.418;2024-02-21T12:16:58;13.20;;;4.97;;
32295;SDS011;18781;51.550;5.418;2024-02-21T12:19:24;16.13;;;5.43;;
32295;SDS011;18781;51.550;5.418;2024-02-21T12:21:50;16.00;;;5.68;;
32295;SDS011;18781;51.550;5.418;2024-02-21T12:24:17;11.55;;;5.13;;
32295;SDS011;18781;51.550;5.418;2024-02-21T12:26:47;15.85;;;5.10;;
32295;SDS011;18781;51.550;5.418;2024-02-21T12:29:12;13.77;;;4.93;;
32295;SDS011;18781;51.550;5.418;2024-02-21T12:31:38;10.32;;;4.72;;
32295;SDS011;18781;51.550;5.418;2024-02-21T12:34:04;21.45;;;5.82;;
32295;SDS011;18781;51.550;5.418;2024-02-21T12:36:31;18.55;;;5.47;;
32295;SDS011;18781;51.550;5.418;2024-02-21T12:38:57;15.65;;;5.35;;
32295;SDS011;18781;51.550;5.418;2024-02-21T12:41:23;15.20;;;5.43;;
32295;SDS011;18781;51.550;5.418;2024-02-21T12:43:50;12.95;;;4.85;;
32295;SDS011;18781;51.550;5.418;2024-02-21T12:46:16;16.73;;;5.38;;
32295;SDS011;18781;51.550;5.418;2024-02-21T12:48:42;13.27;;;4.88;;
32295;SDS011;18781;51.550;5.418;2024-02-21T12:51:07;18.80;;;5.15;;
32295;SDS011;18781;51.550;5.418;2024-02-21T12:53:36;13.13;;;4.82;;
32295;SDS011;18781;51.550;5.418;2024-02-21T12:56:01;14.40;;;5.00;;
32295;SDS011;18781;51.550;5.418;2024-02-21T12:58:29;14.10;;;4.30;;
32295;SDS011;18781;51.550;5.418;2024-02-21T13:00:56;14.60;;;4.35;;
32295;SDS011;18781;51.550;5.418;2024-02-21T13:03:22;16.85;;;4.57;;
32295;SDS011;18781;51.550;5.418;2024-02-21T13:05:48;14.32;;;4.72;;
32295;SDS011;18781;51.550;5.418;2024-02-21T13:08:13;19.27;;;5.28;;
32295;SDS011;18781;51.550;5.418;2024-02-21T13:10:39;17.27;;;4.40;;
32295;SDS011;18781;51.550;5.418;2024-02-21T13:13:05;20.00;;;4.93;;
32295;SDS011;18781;51.550;5.418;2024-02-21T13:15:30;14.48;;;3.88;;
32295;SDS011;18781;51.550;5.418;2024-02-21T13:17:56;11.95;;;5.03;;
32295;SDS011;18781;51.550;5.418;2024-02-21T13:20:23;11.38;;;4.28;;
32295;SDS011;18781;51.550;5.418;2024-02-21T13:22:48;11.57;;;3.92;;
32295;SDS011;18781;51.550;5.418;2024-02-21T13:25:14;16.05;;;4.13;;
32295;SDS011;18781;51.550;5.418;2024-02-21T13:27:43;14.80;;;4.13;;
32295;SDS011;18781;51.550;5.418;2024-02-21T13:30:09;10.45;;;4.00;;
32295;SDS011;18781;51.550;5.418;2024-02-21T13:32:35;12.30;;;3.90;;
32295;SDS011;18781;51.550;5.418;2024-02-21T13:35:01;15.25;;;4.63;;
32295;SDS011;18781;51.550;5.418;2024-02-21T13:37:28;9.70;;;3.65;;
32295;SDS011;18781;51.550;5.418;2024-02-21T13:39:54;11.43;;;3.40;;
32295;SDS011;18781;51.550;5.418;2024-02-21T13:42:20;10.00;;;3.22;;
32295;SDS011;18781;51.550;5.418;2024-02-21T13:44:45;11.80;;;3.25;;
32295;SDS011;18781;51.550;5.418;2024-02-21T13:47:13;8.20;;;3.17;;
32295;SDS011;18781;51.550;5.418;2024-02-21T13:49:39;11.05;;;3.40;;
32295;SDS011;18781;51.550;5.418;2024-02-21T13:52:05;7.32;;;3.55;;
32295;SDS011;18781;51.550;5.418;2024-02-21T13:54:31;10.20;;;3.90;;
32295;SDS011;18781;51.550;5.418;2024-02-21T13:56:56;10.07;;;3.30;;
32295;SDS011;18781;51.550;5.418;2024-02-21T13:59:22;11.98;;;3.35;;
32295;SDS011;18781;51.550;5.418;2024-02-21T14:01:48;8.52;;;3.00;;
32295;SDS011;18781;51.550;5.418;2024-02-21T14:04:13;7.88;;;3.30;;
32295;SDS011;18781;51.550;5.418;2024-02-21T14:06:39;8.98;;;3.45;;
32295;SDS011;18781;51.550;5.418;2024-02-21T14:09:14;8.52;;;3.35;;
32295;SDS011;18781;51.550;5.418;2024-02-21T14:11:39;12.27;;;3.40;;
32295;SDS011;18781;51.550;5.418;2024-02-21T14:14:06;13.25;;;3.55;;
32295;SDS011;18781;51.550;5.418;2024-02-21T14:16:32;11.50;;;3.40;;
32295;SDS011;18781;51.550;5.418;2024-02-21T14:18:58;10.93;;;3.72;;
32295;SDS011;18781;51.550;5.418;2024-02-21T14:21:23;11.32;;;4.32;;
32295;SDS011;18781;51.550;5.418;2024-02-21T14:23:49;13.07;;;3.60;;
32295;SDS011;18781;51.550;5.418;2024-02-21T14:26:15;12.57;;;3.92;;
32295;SDS011;18781;51.550;5.418;2024-02-21T14:28:41;8.45;;;3.53;;
32295;SDS011;18781;51.550;5.418;2024-02-21T14:31:07;9.57;;;3.50;;
32295;SDS011;18781;51.550;5.418;2024-02-21T14:33:37;8.18;;;3.45;;
32295;SDS011;18781;51.550;5.418;2024-02-21T14:36:02;10.95;;;4.00;;
32295;SDS011;18781;51.550;5.418;2024-02-21T14:38:28;12.88;;;3.80;;
32295;SDS011;18781;51.550;5.418;2024-02-21T14:40:54;10.57;;;3.42;;